Home > Products > Valid Products > TAF

000
FTUS45 KRIW 280400 AAA
TAFBPI
TAF AMD
KBPI 280410Z 2804/2824 VRB03KT P6SM SCT010 SCT110
      TEMPO 2804/2808 BKN010
     FM280800 VRB03KT P6SM VCFG SCT003 SCT010
     FM281400 VRB04KT P6SM FEW010
     FM281900 31012G18KT P6SM FEW090=



000
FTUS45 KRIW 272300
TAFJAC
TAF
KJAC 272320Z 2800/2824 29008KT P6SM SCT080
     FM280200 VRB04KT P6SM FEW090
     FM280600 36006KT P6SM SKC
     FM281700 22007KT P6SM FEW080
      AMD LTD TO CLD VIS AND WIND=



000
FTUS45 KRIW 272300
TAFRKS
TAF
KRKS 272320Z 2800/2824 31007KT P6SM -SHRA SCT025 BKN050
     FM280400 31007KT P6SM VCSH SCT030 OVC050
     FM280800 28008KT P6SM SCT040 BKN060
     FM281000 24006KT P6SM VCFG SCT012 BKN020
     FM281600 29012G18KT P6SM SCT070=



000
FTUS45 KRIW 272300
TAFRIW
TAF
KRIW 272320Z 2800/2824 23008KT P6SM VCSH SCT060 OVC090
     FM280400 30006KT P6SM BKN100
     FM280600 30006KT P6SM FEW100
     FM280900 30006KT P6SM VCFG SCT012
     FM281600 04006KT P6SM FEW090=



000
FTUS45 KRIW 272300
TAFCOD
TAF
KCOD 272320Z 2800/2824 10007KT P6SM FEW120 BKN200
     FM280200 VRB05KT P6SM SCT200
     FM280600 21005KT P6SM SKC
     FM281800 04006KT P6SM FEW080
      AMD LTD TO CLD VIS AND WIND=



000
FTUS45 KRIW 272300
TAFBPI
TAF
KBPI 272320Z 2800/2824 17008KT P6SM -SHRA SCT020 OVC050
     FM280200 VRB06KT P6SM SCT035 BKN080
     FM280700 VRB05KT P6SM SCT090
     FM281900 31012G18KT P6SM FEW090=



000
FTUS45 KRIW 272300
TAFLND
TAF
KLND 272320Z 2800/2824 VRB06KT P6SM VCSH FEW040 SCT060 OVC090
     FM280200 VRB05KT P6SM SCT060 BKN090
     FM280700 VRB05KT P6SM SCT090
     FM280900 VRB04KT P6SM VCFG SCT012
     FM281700 05005KT P6SM FEW090=



000
FTUS45 KRIW 272300
TAFWRL
TAF
KWRL 272320Z 2800/2824 VRB04KT P6SM SCT120 BKN150
     FM280300 VRB05KT P6SM FEW120
     FM280700 VRB04KT P6SM SKC=



000
FTUS45 KRIW 272300
TAFCPR
TAF
KCPR 272320Z 2800/2824 VRB05KT P6SM VCSH SCT050 BKN080
     FM280300 VRB05KT P6SM VCSH BKN040
     FM280600 26006KT P6SM SCT060 BKN090
     FM280900 26005KT P6SM VCFG SCT005 SCT100
     FM281600 01010KT P6SM SCT080=



000
FTUS45 KRIW 272100 AAA
TAFRIW
TAF AMD
KRIW 272140Z 2722/2818 23010KT P6SM -SHRA SCT060 OVC080
     FM280000 29006KT P6SM VCSH SCT060 BKN080
     FM280300 30006KT P6SM BKN100
     FM280600 30006KT P6SM FEW100
     FM281600 04006KT P6SM FEW090=



000
FTUS45 KRIW 271700
TAFBPI
TAF
KBPI 271725Z 2718/2818 14006KT P6SM -SHRA SCT040 OVC070
     FM280200 VRB06KT P6SM SCT045 BKN080
     FM280700 VRB05KT P6SM SCT090=



000
FTUS45 KRIW 271700
TAFLND
TAF
KLND 271725Z 2718/2818 11005KT 5SM -SHRA SCT020 OVC040
     FM272100 VRB06KT P6SM VCSH SCT035 BKN045
      TEMPO 2721/2723 -SHRA
     FM280100 VRB05KT P6SM VCSH SCT040 BKN060
     FM280300 VRB05KT P6SM SCT050 BKN080
     FM280700 VRB05KT P6SM SCT090
     FM281700 05005KT P6SM FEW090=



000
FTUS45 KRIW 271700
TAFCOD
TAF
KCOD 271725Z 2718/2818 VRB05KT P6SM SCT110 BKN200
     FM271900 06005KT P6SM SCT080
     FM280200 VRB05KT P6SM FEW090
     FM280600 21005KT P6SM SKC
      AMD LTD TO CLD VIS AND WIND=



000
FTUS45 KRIW 271700
TAFRKS
TAF
KRKS 271725Z 2718/2818 11007KT P6SM VCSH FEW009 SCT019 BKN060
      TEMPO 2718/2721 -SHRA SCT009 BKN019
     FM272100 VRB06KT P6SM -SHRA VCTS SCT025 BKN050CB
     FM280200 31007KT P6SM VCSH SCT030 OVC050
     FM280800 28008KT P6SM SCT040 BKN060
     FM281600 29012G18KT P6SM SCT070=



000
FTUS45 KRIW 271700
TAFCPR
TAF
KCPR 271725Z 2718/2818 09007KT P6SM -SHRA VCTS SCT014 BKN035
      BKN060CB
      TEMPO 2718/2720 4SM SHRA BKN014
     FM272000 10008KT P6SM -SHRA VCTS FEW030 BKN060CB
     FM280000 VRB06KT P6SM -SHRA SCT030 BKN045
     FM280300 VRB05KT P6SM VCSH BKN040
     FM280600 26006KT P6SM SCT040 BKN060
     FM281700 01010KT P6SM SCT060=



000
FTUS45 KRIW 271700
TAFWRL
TAF
KWRL 271725Z 2718/2818 VRB04KT P6SM SCT100 BKN150
     FM280300 VRB05KT P6SM FEW120
     FM280700 VRB04KT P6SM SKC=



000
FTUS45 KRIW 271700
TAFJAC
TAF
KJAC 271725Z 2718/2818 VRB04KT P6SM SCT090
     FM271900 19009KT P6SM SCT080
     FM280200 VRB04KT P6SM FEW090
     FM280600 36006KT P6SM SKC
     FM281700 22007KT P6SM FEW080
      AMD LTD TO CLD VIS AND WIND=



000
FTUS45 KRIW 271700
TAFRIW
TAF
KRIW 271725Z 2718/2818 VRB05KT P6SM -SHRA SCT030 OVC050
      TEMPO 2719/2721 5SM SHRA BKN030
     FM272100 09006KT P6SM -SHRA SCT040 BKN060
     FM280000 29006KT P6SM VCSH SCT060 BKN080
     FM280300 30006KT P6SM BKN100
     FM280600 30006KT P6SM FEW100
     FM281600 04006KT P6SM FEW090=



000
FTUS45 KRIW 271700 AAA
TAFRKS
TAF AMD
KRKS 271710Z 2717/2812 36007KT P6SM -RA SCT013 OVC050
      TEMPO 2717/2719 6SM RA BR SCT009 BKN013
     FM271900 VRB06KT P6SM -SHRA VCTS SCT025 BKN050CB
      TEMPO 2721/2724 5SM SHRA BKN025
     FM280100 31007KT P6SM VCSH SCT030 OVC050
     FM280800 28008KT P6SM SCT040 BKN060=



000
FTUS45 KRIW 271700 AAD
TAFCPR
TAF AMD
KCPR 271706Z 2717/2812 VRB05KT P6SM -SHRA SCT014 BKN040
      TEMPO 2717/2719 4SM RA BKN014
     FM271900 10008KT P6SM -SHRA VCTS SCT030 BKN050CB
     FM280000 VRB06KT P6SM -SHRA SCT030 BKN045
     FM280300 VRB05KT P6SM VCSH BKN040
     FM280600 28006KT P6SM SCT040 BKN060=



000
FTUS45 KRIW 271500 AAC
TAFCPR
TAF AMD
KCPR 271554Z 2716/2812 VRB05KT P6SM -SHRA SCT015 BKN040
      TEMPO 2716/2719 4SM RA SCT015 OVC030
     FM271900 10008KT P6SM -SHRA VCTS SCT030 BKN050CB
     FM280000 VRB06KT P6SM -SHRA SCT030 BKN045
     FM280300 VRB05KT P6SM VCSH BKN040
     FM280600 28006KT P6SM SCT040 BKN060=



000
FTUS45 KRIW 271400 AAB
TAFCPR
TAF AMD
KCPR 271409Z 2714/2812 VRB05KT P6SM -SHRA BKN013
     FM271600 09007KT P6SM -SHRA SCT040 OVC080
     FM272000 10008KT P6SM -SHRA VCTS FEW030 BKN060CB
     FM280000 VRB06KT P6SM -SHRA SCT030 BKN045
     FM280300 VRB05KT P6SM VCSH BKN040
     FM280600 28006KT P6SM SCT040 BKN060=



000
FTUS45 KRIW 271300 AAA
TAFCPR
TAF AMD
KCPR 271359Z 2714/2812 VRB05KT P6SM -SHRA SCT013 OVC100
     FM271600 09007KT P6SM -SHRA SCT040 OVC080
     FM272000 10008KT P6SM -SHRA VCTS FEW030 BKN060CB
     FM280000 VRB06KT P6SM -SHRA SCT030 BKN045
     FM280300 VRB05KT P6SM VCSH BKN040
     FM280600 28006KT P6SM SCT040 BKN060=



000
FTUS45 KRIW 271100
TAFRIW
TAF
KRIW 271139Z 2712/2812 36007KT P6SM VCSH OVC120
     FM271600 VRB05KT P6SM -SHRA SCT040 OVC080
     FM272100 09006KT P6SM VCTS BKN060CB
     FM280100 29006KT P6SM VCSH SCT060 BKN080
     FM280300 30006KT P6SM BKN100
     FM280600 30006KT P6SM FEW150=



000
FTUS45 KRIW 271100
TAFWRL
TAF
KWRL 271139Z 2712/2812 VRB04KT P6SM FEW120
     FM271800 VRB04KT P6SM SCT100 BKN150
     FM280300 VRB05KT P6SM FEW120
     FM280700 VRB04KT P6SM SKC=



000
FTUS45 KRIW 271100
TAFRKS
TAF
KRKS 271139Z 2712/2812 14007KT P6SM -RA SCT030 OVC060
     FM271500 11007KT 6SM RA BR OVC025
     FM271900 VRB06KT P6SM -SHRA VCTS SCT025 BKN050CB PROB30
      2721/2724 5SM -TSRA BKN025CB
     FM280100 31007KT P6SM VCSH SCT030 OVC050
     FM280800 28008KT P6SM SCT040 BKN060=



000
FTUS45 KRIW 271100
TAFCOD
TAF
KCOD 271139Z 2712/2812 VRB05KT P6SM SCT110
     FM271900 06005KT P6SM SCT080
     FM280200 VRB05KT P6SM FEW090
     FM280600 21005KT P6SM SKC
      AMD LTD TO CLD VIS AND WIND=



000
FTUS45 KRIW 271100
TAFCPR
TAF
KCPR 271139Z 2712/2812 04006KT P6SM VCSH SCT050 OVC100
     FM271600 09007KT P6SM -SHRA SCT040 OVC080
     FM272000 10008KT P6SM -SHRA VCTS FEW030 BKN060CB
     FM280000 VRB06KT P6SM -SHRA SCT030 BKN045
     FM280300 VRB05KT P6SM VCSH BKN040
     FM280600 28006KT P6SM SCT040 BKN060=



000
FTUS45 KRIW 271100
TAFLND
TAF
KLND 271139Z 2712/2812 VRB05KT P6SM VCSH SCT070 OVC120
     FM271600 11005KT P6SM -SHRA SCT040 OVC070
     FM272100 VRB06KT P6SM VCTS SCT035 BKN045CB
     FM280100 VRB05KT P6SM VCSH SCT040 BKN060
     FM280300 VRB05KT P6SM SCT050 BKN080
     FM280700 VRB05KT P6SM SCT090=



000
FTUS45 KRIW 271100
TAFJAC
TAF
KJAC 271139Z 2712/2812 VRB04KT P6SM SCT090
     FM271900 19009KT P6SM SCT080
     FM280200 VRB04KT P6SM FEW090
     FM280600 36006KT P6SM SKC
      AMD LTD TO CLD VIS AND WIND=



000
FTUS45 KRIW 271100
TAFBPI
TAF
KBPI 271139Z 2712/2812 VRB05KT P6SM VCSH SCT040 OVC060
     FM271800 14006KT P6SM -SHRA SCT030 OVC050
     FM280200 VRB06KT P6SM SCT045 BKN080
     FM280700 VRB05KT P6SM SCT090=



000
FTUS45 KRIW 270500
TAFRKS
TAF
KRKS 270528Z 2706/2806 14006KT P6SM SCT060 BKN100
     FM271100 14007KT P6SM VCSH SCT030 BKN050
     FM271400 11007KT P6SM -SHRA BKN024 PROB30 2721/2724 5SM -TSRA
      BKN020CB
     FM280000 31007KT P6SM VCSH SCT030 BKN040=



000
FTUS45 KRIW 270500
TAFCOD
TAF
KCOD 270528Z 2706/2806 VRB05KT P6SM SCT110
     FM271900 06005KT P6SM SCT080
     FM280200 VRB05KT P6SM FEW090
      AMD LTD TO CLD VIS AND WIND=



000
FTUS45 KRIW 270500
TAFJAC
TAF
KJAC 270528Z 2706/2806 VRB04KT P6SM SCT090
     FM271900 19009KT P6SM SCT080
     FM280200 VRB04KT P6SM FEW090
      AMD LTD TO CLD VIS AND WIND=



000
FTUS45 KRIW 270500
TAFWRL
TAF
KWRL 270528Z 2706/2806 VRB04KT P6SM FEW120
     FM271800 VRB04KT P6SM SCT120 BKN250
     FM280300 VRB05KT P6SM FEW120=



000
FTUS45 KRIW 270500
TAFLND
TAF
KLND 270528Z 2706/2806 VRB05KT P6SM BKN090
     FM271600 11005KT P6SM VCSH SCT030 BKN050
     FM272200 VRB06KT P6SM VCTS SCT035 BKN045CB
     FM280100 VRB05KT P6SM VCSH SCT040 BKN060
     FM280400 VRB05KT P6SM SCT050 BKN080=



000
FTUS45 KRIW 270500
TAFRIW
TAF
KRIW 270528Z 2706/2806 36007KT P6SM BKN100
     FM271600 VRB05KT P6SM VCSH SCT050 BKN070
     FM272200 09006KT P6SM VCTS SCT050CB BKN070CB
     FM280100 29006KT P6SM VCSH SCT060 BKN080
     FM280400 30006KT P6SM BKN100=



000
FTUS45 KRIW 270500
TAFBPI
TAF
KBPI 270528Z 2706/2806 VRB06KT P6SM SCT060 BKN100
     FM271500 14006KT P6SM VCSH SCT035 BKN050
     FM271800 14006KT P6SM -SHRA FEW030 BKN040
     FM280100 VRB06KT P6SM SCT045 BKN080=



000
FTUS45 KRIW 270500
TAFCPR
TAF
KCPR 270528Z 2706/2806 04006KT P6SM SCT090
     FM271400 05006KT P6SM BKN090
     FM271800 09007KT P6SM VCSH SCT050 BKN070
     FM272100 10006KT P6SM VCTS SCT050 BKN060CB
     FM272300 VRB06KT P6SM -SHRA SCT030 BKN045
     FM280500 VRB05KT P6SM VCSH BKN040=



000
FTUS45 KRIW 262300
TAFRKS
TAF
KRKS 262325Z 2700/2724 VRB06KT P6SM VCTS SCT060CB BKN080
      TEMPO 2700/2702 6SM TSRA BKN060CB
     FM270200 VRB05KT P6SM VCSH SCT060 BKN080
     FM270900 05010KT P6SM VCSH SCT020 OVC040
     FM271800 04005KT P6SM VCTS SCT050CB BKN100=



000
FTUS45 KRIW 262300
TAFWRL
TAF
KWRL 262325Z 2700/2724 VRB05KT P6SM SCT100 BKN150
     FM270300 VRB05KT P6SM SCT100
     FM271800 VRB04KT P6SM SCT070 BKN150=



000
FTUS45 KRIW 262300
TAFRIW
TAF
KRIW 262325Z 2700/2724 VRB07KT P6SM VCTS SCT060CB BKN120
     FM270200 06006KT P6SM VCSH BKN080
     FM270500 VRB05KT P6SM SCT100
     FM271000 09007KT P6SM VCSH SCT050 BKN100
     FM271800 19007KT P6SM VCTS SCT060CB BKN100=



000
FTUS45 KRIW 262300
TAFCPR
TAF
KCPR 262325Z 2700/2724 VRB05KT P6SM VCTS SCT060CB BKN100
     FM270200 02006KT P6SM VCSH SCT060 BKN090
     FM271100 05006KT P6SM VCSH BKN030
     FM271800 VRB04KT P6SM VCTS SCT060CB BKN100=



000
FTUS45 KRIW 262300
TAFJAC
TAF
KJAC 262325Z 2700/2724 VRB05KT P6SM VCSH SCT050 BKN100
     FM270200 01007KT P6SM SCT100
     FM271900 19009KT P6SM SCT080
      AMD LTD TO CLD VIS AND WIND=



000
FTUS45 KRIW 262300
TAFLND
TAF
KLND 262325Z 2700/2724 VRB05KT P6SM VCTS SCT060CB BKN120
     FM270200 VRB05KT P6SM VCSH BKN080
     FM270500 VRB05KT P6SM SCT100
     FM271000 VRB05KT P6SM VCSH SCT050 BKN100
     FM271800 20007KT P6SM VCTS SCT060CB BKN100=



000
FTUS45 KRIW 262300
TAFCOD
TAF
KCOD 262325Z 2700/2724 06006KT P6SM VCSH SCT080 BKN150
     FM270300 VRB05KT P6SM SCT060 SCT100
      AMD LTD TO CLD VIS AND WIND=



000
FTUS45 KRIW 262300
TAFBPI
TAF
KBPI 262325Z 2700/2724 16007KT P6SM VCTS SCT040CB BKN070
     FM270200 VRB06KT P6SM VCSH FEW060 BKN080
     FM270500 VRB05KT P6SM SCT080 BKN150
     FM271000 VRB05KT P6SM VCSH SCT050 BKN100=



000
FTUS45 KRIW 261800 AAA
TAFCPR
TAF AMD
KCPR 261859Z 2619/2718 22012KT P6SM SCT100 BKN200
     FM262100 03006KT P6SM VCTS SCT060CB BKN100
     FM270200 02006KT P6SM VCSH SCT060 BKN090
     FM271100 05006KT P6SM VCSH BKN030=



000
FTUS45 KRIW 261800 AAA
TAFJAC
TAF AMD
KJAC 261830Z 2619/2718 VRB04KT P6SM SCT080
     FM262000 VRB05KT P6SM VCSH SCT080 BKN120
     FM270200 01007KT P6SM SCT100
      AMD LTD TO CLD VIS AND WIND=



000
FTUS45 KRIW 261700
TAFWRL
TAF
KWRL 261732Z 2618/2718 VRB05KT P6SM SCT110
     FM262300 VRB05KT P6SM VCSH SCT100 BKN150
     FM270300 VRB05KT P6SM SCT100=



000
FTUS45 KRIW 261700
TAFRIW
TAF
KRIW 261732Z 2618/2718 VRB05KT P6SM SCT100 BKN200
     FM262300 03006KT P6SM VCTS SCT060CB BKN120
     FM270200 06006KT P6SM VCSH BKN080
     FM270500 VRB05KT P6SM SCT100
     FM271000 09007KT P6SM VCSH SCT050 BKN100=



000
FTUS45 KRIW 261700
TAFJAC
TAF
KJAC 261732Z 2618/2718 VRB04KT P6SM BKN012
     FM262000 VRB05KT P6SM VCSH SCT080 BKN120
     FM270200 01007KT P6SM SCT100
      AMD LTD TO CLD VIS AND WIND=



000
FTUS45 KRIW 261700
TAFCOD
TAF
KCOD 261732Z 2618/2718 VRB04KT P6SM SCT150
     FM262100 04006KT P6SM VCSH SCT080 BKN150
     FM270300 VRB05KT P6SM SCT060 SCT100
      AMD LTD TO CLD VIS AND WIND=



000
FTUS45 KRIW 261700
TAFLND
TAF
KLND 261732Z 2618/2718 VRB06KT P6SM BKN200
     FM262100 VRB05KT P6SM VCTS SCT060CB BKN100
     FM270200 VRB05KT P6SM VCSH BKN080
     FM270500 VRB05KT P6SM SCT100
     FM271000 VRB05KT P6SM VCSH SCT050 BKN100=



000
FTUS45 KRIW 261700
TAFRKS
TAF
KRKS 261732Z 2618/2718 VRB05KT P6SM SCT100
     FM262000 21006KT P6SM VCTS SCT060CB BKN080
     FM270200 VRB05KT P6SM VCSH SCT060 BKN080
     FM270900 05010KT P6SM VCSH SCT020 OVC040=



000
FTUS45 KRIW 261700
TAFCPR
TAF
KCPR 261732Z 2618/2718 28012KT P6SM SCT100 BKN200
     FM262100 03006KT P6SM VCTS SCT060CB BKN100
     FM270200 02006KT P6SM VCSH SCT060 BKN090
     FM271100 05006KT P6SM VCSH BKN030=



000
FTUS45 KRIW 261700
TAFBPI
TAF
KBPI 261732Z 2618/2718 VRB05KT P6SM BKN090
     FM262000 VRB06G16KT P6SM VCTS SCT040CB BKN090
     FM270200 VRB06KT P6SM VCSH FEW060 BKN080
     FM270500 VRB05KT P6SM SCT080 BKN150
     FM271000 VRB05KT P6SM VCSH SCT050 BKN100=



000
FTUS45 KRIW 261300 AAA
TAFJAC
TAF AMD
KJAC 261329Z 2613/2712 VRB03KT P6SM BCFG BKN014
     FM261600 VRB04KT P6SM FEW010 SCT100
     FM262100 VRB05KT P6SM VCSH SCT080 BKN120
     FM270200 01007KT P6SM SCT100
      AMD LTD TO CLD VIS AND WIND=



000
FTUS45 KRIW 261300 AAA
TAFRIW
TAF AMD
KRIW 261315Z 2613/2712 31010KT P6SM SCT100 BKN150
     FM261500 VRB04KT P6SM SCT100 BKN150
     FM261800 04006KT P6SM SCT070 SCT100
     FM262300 03006KT P6SM VCTS SCT060CB BKN120
     FM270200 06006KT P6SM VCSH BKN080
     FM270500 VRB05KT P6SM SCT100
     FM271000 09007KT P6SM VCSH SCT050 BKN100=



000
FTUS45 KRIW 261100
TAFWRL
TAF
KWRL 261139Z 2612/2712 VRB05KT P6SM SCT110
     FM262300 VRB05KT P6SM VCSH SCT100 BKN150
     FM270300 VRB05KT P6SM SCT100=



000
FTUS45 KRIW 261100
TAFRKS
TAF
KRKS 261139Z 2612/2712 VRB05KT P6SM VCSH SCT100 BKN150
     FM261500 VRB05KT P6SM SCT100
     FM262000 21006KT P6SM VCTS SCT060CB BKN080
     FM270200 VRB05KT P6SM VCSH SCT060 BKN080
     FM270900 05010KT P6SM VCSH SCT020 OVC040=



000
FTUS45 KRIW 261100
TAFCOD
TAF
KCOD 261139Z 2612/2712 VRB04KT P6SM SCT150
     FM262100 04006KT P6SM VCSH SCT080 BKN150
     FM270300 VRB05KT P6SM SCT100
      AMD LTD TO CLD VIS AND WIND=



000
FTUS45 KRIW 261100
TAFJAC
TAF
KJAC 261139Z 2612/2712 VRB03KT P6SM BCFG OVC008
     FM261600 VRB04KT P6SM FEW010 SCT100
     FM262100 VRB05KT P6SM VCSH SCT080 BKN120
     FM270200 01007KT P6SM SCT100
      AMD LTD TO CLD VIS AND WIND=



000
FTUS45 KRIW 261100
TAFCPR
TAF
KCPR 261139Z 2612/2712 VRB05KT P6SM SCT100 BKN200
     FM262100 03006KT P6SM VCTS SCT060CB BKN100
     FM270200 02006KT P6SM VCSH SCT060 BKN090
     FM271100 05006KT P6SM VCSH BKN030=



000
FTUS45 KRIW 261100
TAFLND
TAF
KLND 261139Z 2612/2712 VRB05KT P6SM VCSH BKN100
     FM261400 VRB05KT P6SM SCT100 BKN150
     FM262100 VRB05KT P6SM VCTS SCT060CB BKN100
     FM270200 VRB05KT P6SM VCSH BKN080
     FM270500 VRB05KT P6SM SCT100
     FM271000 VRB05KT P6SM VCSH SCT050 BKN100=



000
FTUS45 KRIW 261100
TAFRIW
TAF
KRIW 261139Z 2612/2712 VRB05KT P6SM SCT100 BKN150
     FM261800 04006KT P6SM SCT070 SCT100
     FM262300 03006KT P6SM VCTS SCT060CB BKN120
     FM270200 06006KT P6SM VCSH BKN080
     FM270500 VRB05KT P6SM SCT100
     FM271000 09007KT P6SM VCSH SCT050 BKN100=



000
FTUS45 KRIW 261100
TAFBPI
TAF
KBPI 261139Z 2612/2712 VRB05KT P6SM -SHRA SCT040 BKN080
     FM261500 VRB05KT P6SM SCT100 BKN150
     FM262000 VRB06G16KT P6SM VCTS SCT050CB BKN090
     FM270200 VRB06KT P6SM VCSH FEW060 BKN080
     FM270500 VRB05KT P6SM SCT080 BKN150
     FM271000 VRB05KT P6SM VCSH BKN100=



000
FTUS45 KRIW 260500
TAFJAC
TAF
KJAC 260530Z 2606/2706 VRB03KT P6SM VCFG SCT003
      TEMPO 2610/2614 3SM BR BKN005
     FM261600 VRB04KT P6SM SCT100
     FM261900 36006KT P6SM SCT070 SCT100
     FM270200 01007KT P6SM SCT100
      AMD LTD TO CLD VIS AND WIND=



000
FTUS45 KRIW 260500
TAFLND
TAF
KLND 260530Z 2606/2706 VRB05KT P6SM SCT110
     FM261300 VRB04KT P6SM VCSH BKN090
     FM261800 VRB05KT P6SM SCT100
     FM262100 VRB06KT P6SM VCTS SCT060CB BKN080
     FM270100 VRB05KT P6SM VCSH FEW050 BKN070=



000
FTUS45 KRIW 260500
TAFCPR
TAF
KCPR 260530Z 2606/2706 21006KT P6SM BKN090
     FM261200 21006KT P6SM SCT080 BKN140
     FM261800 VRB05KT P6SM SCT070 SCT110
     FM262100 03006KT P6SM VCTS SCT060CB BKN100
     FM270200 02006KT P6SM VCSH SCT060 BKN090=



000
FTUS45 KRIW 260500
TAFCOD
TAF
KCOD 260530Z 2606/2706 VRB04KT P6SM BKN100
     FM260900 VRB04KT P6SM SCT100
     FM262000 04006KT P6SM SCT070 SCT100
     FM270000 VRB05KT P6SM VCSH FEW070 BKN100
      AMD LTD TO CLD VIS AND WIND=



000
FTUS45 KRIW 260500
TAFRKS
TAF
KRKS 260530Z 2606/2706 VRB05KT P6SM VCSH FEW070 BKN100
     FM261000 18006KT P6SM FEW070 BKN100
     FM262100 21006KT P6SM VCTS SCT060CB BKN080
     FM270200 VRB05KT P6SM VCSH SCT060 BKN080=



000
FTUS45 KRIW 260500
TAFWRL
TAF
KWRL 260530Z 2606/2706 VRB05KT P6SM SCT110
     FM262000 VRB05KT P6SM SCT070 SCT110
     FM270000 VRB05KT P6SM VCSH SCT070 BKN090=



000
FTUS45 KRIW 260500
TAFBPI
TAF
KBPI 260530Z 2606/2706 VRB05KT P6SM SCT100
     FM261000 VRB05KT P6SM VCSH SCT060 BKN080
     FM261600 VRB05KT P6SM SCT070 SCT100
     FM262000 VRB06G16KT P6SM VCTS SCT050CB BKN090
     FM270200 VRB06KT P6SM VCSH FEW060 BKN080=



000
FTUS45 KRIW 260500
TAFRIW
TAF
KRIW 260530Z 2606/2706 34006KT P6SM SCT110
     FM261400 VRB05KT P6SM VCSH BKN100
     FM261800 04006KT P6SM SCT070 SCT100
     FM262300 03006KT P6SM VCTS SCT060CB BKN090
     FM270200 06006KT P6SM VCSH BKN080=



000
FTUS45 KRIW 260400 AAA
TAFCPR
TAF AMD
KCPR 260412Z 2604/2624 08010KT P6SM VCTS SCT045CB BKN070
     FM260600 09008KT P6SM SCT080 BKN120
     FM260900 VRB06KT P6SM SCT100 BKN150
     FM262100 VRB06KT P6SM VCTS SCT050CB BKN100=



000
FTUS45 KRIW 252300
TAFCOD
TAF
KCOD 252326Z 2600/2624 17008KT P6SM VCSH SCT050 BKN080
     FM260300 08007KT P6SM VCSH SCT030 BKN050
     FM260600 VRB05KT P6SM FEW015 BKN050
     FM262000 VRB06KT P6SM VCTS SCT040CB BKN070
      AMD LTD TO CLD VIS AND WIND=



000
FTUS45 KRIW 252300
TAFWRL
TAF
KWRL 252326Z 2600/2624 01006KT P6SM VCSH SCT060 BKN120
     FM260500 VRB05KT P6SM SCT060
     FM262200 VRB06KT P6SM VCTS SCT050CB BKN090=



000
FTUS45 KRIW 252300
TAFBPI
TAF
KBPI 252326Z 2600/2624 VRB06KT P6SM VCTS SCT040CB BKN080
     FM260200 VRB05KT P6SM VCSH SCT020 BKN060
     FM260700 VRB05KT P6SM SCT015 BKN050
     FM261900 VRB06KT P6SM VCTS SCT040CB BKN090=



000
FTUS45 KRIW 252300
TAFLND
TAF
KLND 252326Z 2600/2624 VRB06KT P6SM VCTS SCT050CB BKN080
     FM260300 VRB05KT P6SM VCSH BKN070
     FM260500 VRB05KT P6SM SCT080 BKN150
     FM262000 VRB06KT P6SM VCTS SCT040CB BKN080=



000
FTUS45 KRIW 252300
TAFRIW
TAF
KRIW 252326Z 2600/2624 06007KT P6SM BKN090
     FM260500 03007KT P6SM SCT080 BKN150
     FM262100 VRB06KT P6SM VCSH SCT050 BKN090=



000
FTUS45 KRIW 252300
TAFJAC
TAF
KJAC 252326Z 2600/2624 18006KT P6SM VCSH SCT050 BKN080
     FM260300 VRB05KT P6SM VCSH SCT025 BKN050
     FM260700 VRB05KT P6SM SCT005 BKN040
      TEMPO 2610/2614 3SM BR BKN005
     FM261900 VRB06KT P6SM VCTS SCT040CB BKN070
      AMD LTD TO CLD VIS AND WIND=



000
FTUS45 KRIW 252300
TAFCPR
TAF
KCPR 252326Z 2600/2624 08010KT P6SM VCTS SCT045CB BKN070
     FM260400 09008KT P6SM VCSH SCT080 BKN120
     FM260900 VRB06KT P6SM SCT100 BKN150
     FM262100 VRB06KT P6SM VCTS SCT050CB BKN100=



000
FTUS45 KRIW 252300
TAFRKS
TAF
KRKS 252326Z 2600/2624 18011KT P6SM VCTS SCT060CB BKN080
      TEMPO 2600/2602 VRB20G30KT 5SM -TSRA BKN040CB
     FM260300 20006KT P6SM VCSH SCT070 BKN100
     FM260500 08008KT P6SM BKN100
     FM262000 VRB06KT P6SM VCTS SCT050CB BKN090=



000
FTUS45 KRIW 251800 AAA
TAFJAC
TAF AMD
KJAC 251801Z 2518/2618 VRB03KT P6SM SCT008 BKN035
     FM251900 18006KT P6SM VCTS SCT030CB BKN060
     FM260300 VRB05KT P6SM VCSH SCT025 BKN050
     FM260700 VRB05KT P6SM SCT005 BKN040
      TEMPO 2610/2614 3SM BR BKN005
      AMD LTD TO CLD VIS AND WIND=



000
FTUS45 KRIW 251700
TAFJAC
TAF
KJAC 251720Z 2518/2618 VRB03KT 6SM BR BKN004
     FM251900 18006KT P6SM VCTS SCT030CB BKN060
     FM260300 VRB05KT P6SM VCSH SCT025 BKN050
     FM260700 VRB05KT P6SM SCT005 BKN040
      TEMPO 2610/2614 3SM BR BKN005
      AMD LTD TO CLD VIS AND WIND=



000
FTUS45 KRIW 251700
TAFCPR
TAF
KCPR 251720Z 2518/2618 08006KT P6SM SCT040
     FM252100 07011KT P6SM SCT040 SCT070
     FM252200 08011KT P6SM VCTS SCT045CB BKN070
     FM260500 09008KT P6SM VCSH SCT080 BKN120
     FM260900 VRB06KT P6SM SCT100 BKN150=



000
FTUS45 KRIW 251700
TAFCOD
TAF
KCOD 251720Z 2518/2618 04005KT P6SM OVC035
     FM251900 08007KT P6SM VCSH SCT030 BKN050
     FM260600 VRB05KT P6SM FEW015 BKN050
      AMD LTD TO CLD VIS AND WIND=



000
FTUS45 KRIW 251700
TAFBPI
TAF
KBPI 251720Z 2518/2618 VRB05KT P6SM VCSH SCT035 BKN060
      TEMPO 2518/2519 3SM -SHRA BR BKN035
     FM251900 17007KT P6SM VCTS SCT035CB BKN070
     FM260300 VRB05KT P6SM VCSH SCT020 BKN060
     FM260700 VRB05KT P6SM SCT015 BKN050=



000
FTUS45 KRIW 251700
TAFRIW
TAF
KRIW 251720Z 2518/2618 05006KT P6SM SCT100
     FM251900 07007KT P6SM SCT080 BKN150
     FM252200 06007KT P6SM VCSH BKN080
     FM260500 03007KT P6SM SCT080 BKN150=



000
FTUS45 KRIW 251700
TAFWRL
TAF
KWRL 251720Z 2518/2618 VRB04KT P6SM BKN050
     FM251900 03006KT P6SM SCT050 BKN080
     FM252100 03006KT P6SM VCSH SCT060 BKN120
     FM260500 VRB05KT P6SM SCT060=



000
FTUS45 KRIW 251700
TAFRKS
TAF
KRKS 251720Z 2518/2618 17005KT P6SM VCSH SCT060 BKN100
     FM252000 18011KT P6SM VCTS SCT060CB BKN150
     FM260200 20006KT P6SM VCSH SCT070 BKN100
     FM260500 08008KT P6SM BKN100=



000
FTUS45 KRIW 251700
TAFLND
TAF
KLND 251720Z 2518/2618 VRB05KT P6SM SCT100
     FM252000 VRB05KT P6SM SCT070 BKN150
     FM252200 VRB05KT P6SM VCTS SCT050CB BKN080
     FM260200 VRB05KT P6SM VCSH BKN070
     FM260500 VRB05KT P6SM SCT080 BKN150=



000
FTUS45 KRIW 251600 AAA
TAFBPI
TAF AMD
KBPI 251639Z 2517/2612 VRB05KT P6SM VCSH SCT035 BKN060
      TEMPO 2517/2519 3SM -SHRA BR BKN035
     FM251900 17007KT P6SM VCTS SCT035CB BKN070
     FM260300 VRB05KT P6SM VCSH SCT020 BKN060
     FM260700 VRB05KT P6SM SCT080 BKN150=



000
FTUS45 KRIW 251600 AAB
TAFJAC
TAF AMD
KJAC 251635Z 2517/2612 VRB03KT 6SM BR BKN004
     FM251800 VRB05KT P6SM VCSH SCT020 BKN050
     FM251900 18006KT P6SM VCTS SCT040CB BKN070
     FM260300 VRB05KT P6SM VCSH SCT045 BKN060
     FM260700 VRB05KT P6SM SCT050 BKN080
      AMD LTD TO CLD VIS AND WIND=



000
FTUS45 KRIW 251200 AAA
TAFJAC
TAF AMD
KJAC 251238Z 2513/2612 VRB03KT 6SM BR BKN004
      TEMPO 2513/2515 1SM BR
     FM251630 VRB05KT P6SM VCSH SCT030 BKN060
     FM251900 18006KT P6SM VCTS SCT050CB BKN080
     FM260300 VRB05KT P6SM VCSH SCT045 BKN060
     FM260700 VRB05KT P6SM SCT050 BKN080
      AMD LTD TO CLD VIS AND WIND=



000
FTUS45 KRIW 251100
TAFWRL
TAF
KWRL 251133Z 2512/2612 VRB04KT P6SM BKN050
     FM251600 VRB05KT P6SM SCT060
     FM252000 03006KT P6SM SCT070 SCT100
     FM260000 03006KT P6SM VCSH SCT080 BKN120
     FM260500 VRB05KT P6SM SCT080=



000
FTUS45 KRIW 251100
TAFJAC
TAF
KJAC 251133Z 2512/2612 VRB03KT P6SM BCFG SCT004 SCT120
      TEMPO 2512/2515 1SM BR VV002
     FM251600 VRB05KT P6SM VCSH SCT030 BKN060
     FM251800 18006KT P6SM VCTS SCT050CB BKN080
     FM260300 VRB05KT P6SM VCSH SCT045 BKN060
     FM260700 VRB05KT P6SM SCT050 BKN080
      AMD LTD TO CLD VIS AND WIND=



000
FTUS45 KRIW 251100
TAFRKS
TAF
KRKS 251133Z 2512/2612 17005KT P6SM VCSH SCT060 BKN100
     FM252000 18011KT P6SM VCTS SCT060CB BKN150
     FM260200 20006KT P6SM VCSH SCT070 BKN100
     FM260500 08008KT P6SM BKN100=



000
FTUS45 KRIW 251100
TAFRIW
TAF
KRIW 251133Z 2512/2612 05006KT P6SM SCT100
     FM251800 07007KT P6SM SCT080 BKN150
     FM252300 06007KT P6SM VCSH BKN080
     FM260500 03007KT P6SM SCT080 BKN150=



000
FTUS45 KRIW 251100
TAFLND
TAF
KLND 251133Z 2512/2612 VRB05KT P6SM SCT100
     FM252000 VRB05KT P6SM SCT070 BKN150
     FM252200 VRB05KT P6SM VCTS SCT070CB BKN120
     FM260200 VRB05KT P6SM VCSH BKN070
     FM260500 VRB05KT P6SM SCT080 BKN150=



000
FTUS45 KRIW 251100
TAFCOD
TAF
KCOD 251133Z 2512/2612 04005KT P6SM OVC030
     FM251630 05006KT P6SM FEW025 SCT040
     FM252100 08007KT P6SM VCSH SCT040 BKN100
     FM260600 VRB05KT P6SM FEW050 SCT080
      AMD LTD TO CLD VIS AND WIND=



000
FTUS45 KRIW 251100
TAFCPR
TAF
KCPR 251133Z 2512/2612 08006KT P6SM SCT090
     FM252100 07011KT P6SM SCT070 SCT120
     FM252300 08011KT P6SM VCTS SCT070CB BKN120
     FM260500 09008KT P6SM VCSH SCT080 BKN120
     FM260900 VRB06KT P6SM SCT100 BKN150=



000
FTUS45 KRIW 251100
TAFBPI
TAF
KBPI 251133Z 2512/2612 VRB05KT P6SM VCSH SCT100 BKN150
     FM251800 17007KT P6SM VCTS SCT080CB BKN120
     FM260300 VRB05KT P6SM VCSH SCT060 BKN080
     FM260700 VRB05KT P6SM SCT080 BKN150=



000
FTUS45 KRIW 251000 AAA
TAFCOD
TAF AMD
KCOD 251006Z 2510/2606 VRB05KT P6SM OVC030
     FM251400 03006KT P6SM FEW050 SCT080
     FM252200 03007KT P6SM VCSH SCT040 BKN060
      AMD LTD TO CLD VIS AND WIND=



000
FTUS45 KRIW 250800 AAA
TAFJAC
TAF AMD
KJAC 250801Z 2508/2606 VRB03KT P6SM BCFG FEW004 SCT100
      TEMPO 2508/2512 1SM BR
     FM251600 VRB05KT P6SM FEW025 SCT100
     FM251800 18006KT P6SM VCTS SCT050CB BKN080
     FM260300 VRB05KT P6SM VCSH SCT045 BKN060
      AMD LTD TO CLD VIS AND WIND=



000
FTUS45 KRIW 250500
TAFLND
TAF
KLND 250528Z 2506/2606 VRB05KT P6SM SCT100
     FM252000 VRB05KT P6SM SCT070 SCT100
     FM252200 VRB05KT P6SM VCTS BKN070CB
     FM260200 VRB05KT P6SM VCSH BKN070
     FM260500 VRB05KT P6SM SCT080 BKN150=



000
FTUS45 KRIW 250500
TAFRIW
TAF
KRIW 250528Z 2506/2606 05006KT P6SM SCT100
     FM252000 07007KT P6SM SCT080
     FM252300 06007KT P6SM VCSH BKN080
     FM260500 03007KT P6SM SCT080 BKN150=



000
FTUS45 KRIW 250500
TAFCPR
TAF
KCPR 250528Z 2506/2606 05005KT P6SM BKN090
     FM251200 08006KT P6SM SCT090
     FM252100 07011KT P6SM SCT070 SCT120
     FM252300 08011KT P6SM VCTS SCT070CB BKN120
     FM260500 09008KT P6SM VCSH SCT080 BKN120=



000
FTUS45 KRIW 250500
TAFWRL
TAF
KWRL 250528Z 2506/2606 VRB05KT P6SM BKN050
     FM251000 VRB04KT P6SM SCT050 BKN080
     FM251400 VRB05KT P6SM SCT080
     FM252000 03006KT P6SM SCT070 SCT100
     FM260000 03006KT P6SM VCSH SCT060 BKN080
     FM260500 VRB05KT P6SM SCT060 SCT080=



000
FTUS45 KRIW 250500
TAFCOD
TAF
KCOD 250528Z 2506/2606 VRB05KT P6SM BKN040
     FM251200 VRB05KT P6SM SCT040 BKN080
     FM251400 03006KT P6SM FEW050 SCT080
     FM252200 03007KT P6SM VCSH SCT040 BKN060
      AMD LTD TO CLD VIS AND WIND=



000
FTUS45 KRIW 250500
TAFJAC
TAF
KJAC 250528Z 2506/2606 VRB05KT P6SM SCT090
     FM251000 VRB03KT P6SM VCFG FEW004 SCT100
     FM251800 18006KT P6SM VCTS SCT050CB BKN080
     FM260300 VRB05KT P6SM VCSH SCT045 BKN060
      AMD LTD TO CLD VIS AND WIND=



000
FTUS45 KRIW 250500
TAFRKS
TAF
KRKS 250528Z 2506/2606 20008KT P6SM VCSH BKN080
     FM251200 17005KT P6SM SCT080 BKN120
     FM252000 18011KT P6SM VCTS BKN060CB
     FM260200 20006KT P6SM VCSH SCT070 BKN100
     FM260500 08008KT P6SM BKN100=



000
FTUS45 KRIW 250500
TAFBPI
TAF
KBPI 250528Z 2506/2606 VRB05KT P6SM SCT100
     FM251800 17007KT P6SM SCT060 SCT100
     FM252100 17011KT P6SM VCTS SCT060CB BKN080
     FM260300 VRB05KT P6SM VCSH SCT060 BKN080=



    US Dept of Commerce
    National Oceanic and Atmospheric Administration
    National Weather Service
    1325 East West Highway
    Silver Spring, MD 20910
    Page Author: NWS Internet Services Team
Disclaimer
Information Quality
Credits
Glossary
Privacy Policy
Freedom of Information Act (FOIA)
About Us
Career Opportunities